Flight Track Log - Related Links

Times and Time Zones

All times are in EST time to prevent confusion due to time zone crossing. See the AFL150 flight status page for this flight to view local times or setup timezone preferences in your user account.


Time Position Orientation Groundspeed Altitude Reporting Facility
EST Latitude Longitude Course Direction KTS MPH feet Rate Location/Type
Thu 04:35:00 AM 56.1257 37.1726 307° West  Level Estimated
Thu 04:36:00 AM 56.1936 37.0080 307° West  Level Estimated
Thu 04:37:00 AM 56.2613 36.8429 306° West  Level Estimated
Thu 04:38:00 AM 56.3288 36.6772 306° West  Level Estimated
Thu 04:39:00 AM 56.3961 36.5108 306° West  Level Estimated
Thu 04:40:00 AM 56.4632 36.3439 306° West  Level Estimated
Thu 04:41:00 AM 56.5300 36.1765 306° West  Level Estimated
Thu 04:42:00 AM 56.5966 36.0084 306° West  Level Estimated
Thu 04:43:00 AM 56.6630 35.8397 306° West  Level Estimated
Thu 04:44:00 AM 56.7291 35.6705 306° West  Level Estimated
Thu 04:45:00 AM 56.7950 35.5006 305° West  Level Estimated
Thu 04:46:00 AM 56.8607 35.3302 305° West  Level Estimated
Thu 04:47:00 AM 56.9262 35.1591 305° West  Level Estimated
Thu 04:48:00 AM 56.9914 34.9875 305° West  Level Estimated
Thu 04:49:00 AM 57.0563 34.8152 305° West  Level Estimated
Thu 04:50:00 AM 57.1211 34.6423 305° West  Level Estimated
Thu 04:51:00 AM 57.1856 34.4689 305° West  Level Estimated
Thu 04:52:00 AM 57.2498 34.2948 304° West  Level Estimated
Thu 04:53:00 AM 57.3139 34.1202 304° West  Level Estimated
Thu 04:54:00 AM 57.3776 33.9449 304° West  Level Estimated
Thu 04:55:00 AM 57.4403 33.7713 304° West  Level Estimated
Thu 04:56:00 AM 57.5028 33.5971 304° West  Level Estimated
Thu 04:57:00 AM 57.5650 33.4223 304° West  Level Estimated
Thu 04:58:00 AM 57.6270 33.2469 303° West  Level Estimated
Thu 04:59:00 AM 57.6888 33.0710 303° West  Level Estimated
Thu 05:00:00 AM 57.7503 32.8944 303° West  Level Estimated
Thu 05:01:00 AM 57.8115 32.7172 303° West  Level Estimated
Thu 05:02:00 AM 57.8725 32.5395 303° West  Level Estimated
Thu 05:03:00 AM 57.9333 32.3611 303° West  Level Estimated
Thu 05:04:00 AM 57.9938 32.1821 303° West  Level Estimated
Thu 05:05:00 AM 58.0540 32.0025 302° West  Level Estimated
Thu 05:06:00 AM 58.1140 31.8223 302° West  Level Estimated
Thu 05:07:00 AM 58.1737 31.6415 302° West  Level Estimated
Thu 05:08:00 AM 58.2332 31.4601 302° West  Level Estimated
Thu 05:09:00 AM 58.2924 31.2781 302° West  Level Estimated
Thu 05:10:00 AM 58.3514 31.0955 302° West  Level Estimated
Thu 05:11:00 AM 58.4101 30.9122 302° West  Level Estimated
Thu 05:12:00 AM 58.4686 30.7284 301° West  Level Estimated
Thu 05:13:00 AM 58.5267 30.5439 301° West  Level Estimated
Thu 05:14:00 AM 58.5847 30.3589 301° West  Level Estimated
Thu 05:15:00 AM 58.6423 30.1732 301° West  Level Estimated
Thu 05:16:00 AM 58.6997 29.9869 301° West  Level Estimated
Thu 05:17:00 AM 58.7568 29.8000 301° West  Level Estimated
Thu 05:18:00 AM 58.8136 29.6125 300° West  Level Estimated
Thu 05:19:00 AM 58.8702 29.4244 300° West  Level Estimated
Thu 05:20:00 AM 58.9265 29.2356 300° West  Level Estimated
Thu 05:21:00 AM 58.9825 29.0463 300° West  Level Estimated
Thu 05:22:00 AM 59.0382 28.8563 300° West  Level Estimated
Thu 05:23:00 AM 59.0937 28.6657 300° West  Level Estimated
Thu 05:24:00 AM 59.1489 28.4745 299° West  Level Estimated
Thu 05:25:00 AM 59.2038 28.2827 299° West  Level Estimated
Thu 05:26:00 AM 59.2584 28.0902 299° West  Level Estimated
Thu 05:27:00 AM 59.3127 27.8972 299° West  Level Estimated
Thu 05:28:00 AM 59.3668 27.7035 299° West  Level Estimated
Thu 05:29:00 AM 59.4205 27.5092 299° West  Level Estimated
Thu 05:30:00 AM 59.4740 27.3143 298° West  Level Estimated
Thu 05:31:00 AM 59.5271 27.1188 298° West  Level Estimated
Thu 05:32:00 AM 59.5800 26.9226 298° West  Level Estimated
Thu 05:33:00 AM 59.6326 26.7259 298° West  Level Estimated
Thu 05:34:00 AM 59.6849 26.5285 298° West  Level Estimated
Thu 05:35:00 AM 59.7369 26.3305 298° West  Level Estimated
Thu 05:36:00 AM 59.7886 26.1319 297° West  Level Estimated
Thu 05:37:00 AM 59.8400 25.9327 297° West  Level Estimated
Thu 05:38:00 AM 59.8911 25.7329 297° West  Level Estimated
Thu 05:39:00 AM 59.9419 25.5325 297° West  Level Estimated
Thu 05:40:00 AM 59.9924 25.3314 297° West  Level Estimated
Thu 05:41:00 AM 60.0425 25.1297 297° West  Level Estimated
Thu 05:42:00 AM 60.0924 24.9275 296° West  Level Estimated
Thu 05:43:00 AM 60.1420 24.7246 296° West  Level Estimated
Thu 05:44:00 AM 60.1912 24.5211 296° West  Level Estimated
Thu 05:45:00 AM 60.2402 24.3170 296° West  Level Estimated
Thu 05:46:00 AM 60.2888 24.1122 296° West  Level Estimated
Thu 05:47:00 AM 60.3371 23.9069 295° West  Level Estimated
Thu 05:48:00 AM 60.3851 23.7010 295° West  Level Estimated
Thu 05:49:00 AM 60.4328 23.4944 295° West  Level Estimated
Thu 05:50:00 AM 60.4801 23.2873 295° West  Level Estimated
Thu 05:51:00 AM 60.5271 23.0795 295° West  Level Estimated
Thu 05:52:00 AM 60.5738 22.8712 295° West  Level Estimated
Thu 05:53:00 AM 60.6202 22.6623 294° West  Level Estimated
Thu 05:54:00 AM 60.6663 22.4527 294° West  Level Estimated
Thu 05:55:00 AM 60.7120 22.2425 294° West  Level Estimated
Thu 05:56:00 AM 60.7574 22.0318 294° West  Level Estimated
Thu 05:57:00 AM 60.8024 21.8205 294° West  Level Estimated
Thu 05:58:00 AM 60.8472 21.6085 294° West  Level Estimated
Thu 05:59:00 AM 60.8916 21.3960 293° West  Level Estimated
Thu 06:00:00 AM 60.9356 21.1829 293° West  Level Estimated
Thu 06:01:00 AM 60.9793 20.9692 293° West  Level Estimated
Thu 06:02:00 AM 61.0227 20.7549 293° West  Level Estimated
Thu 06:03:00 AM 61.0658 20.5401 293° West  Level Estimated
Thu 06:04:00 AM 61.1085 20.3246 292° West  Level Estimated
Thu 06:05:00 AM 61.1508 20.1085 292° West  Level Estimated
Thu 06:06:00 AM 61.1928 19.8919 292° West  Level Estimated
Thu 06:07:00 AM 61.2345 19.6747 292° West  Level Estimated
Thu 06:08:00 AM 61.2758 19.4570 292° West  Level Estimated
Thu 06:09:00 AM 61.3168 19.2386 291° West  Level Estimated
Thu 06:10:00 AM 61.3574 19.0197 291° West  Level Estimated
Thu 06:11:00 AM 61.3977 18.8003 291° West  Level Estimated
Thu 06:12:00 AM 61.4376 18.5802 291° West  Level Estimated
Thu 06:13:00 AM 61.4771 18.3596 291° West  Level Estimated
Thu 06:14:00 AM 61.5163 18.1385 290° West  Level Estimated
Thu 06:15:00 AM 61.5552 17.9167 290° West  Level Estimated
Thu 06:16:00 AM 61.5937 17.6945 290° West  Level Estimated
Thu 06:17:00 AM 61.6318 17.4717 290° West  Level Estimated
Thu 06:18:00 AM 61.6695 17.2483 290° West  Level Estimated
Thu 06:19:00 AM 61.7069 17.0244 289° West  Level Estimated
Thu 06:20:00 AM 61.7439 16.8000 289° West  Level Estimated
Thu 06:21:00 AM 61.7806 16.5750 289° West  Level Estimated
Thu 06:22:00 AM 61.8169 16.3495 289° West  Level Estimated
Thu 06:23:00 AM 61.8528 16.1234 289° West  Level Estimated
Thu 06:24:00 AM 61.8883 15.8968 289° West  Level Estimated
Thu 06:25:00 AM 61.9235 15.6697 288° West  Level Estimated
Thu 06:26:00 AM 61.9583 15.4421 288° West  Level Estimated
Thu 06:27:00 AM 61.9927 15.2140 288° West  Level Estimated
Thu 06:28:00 AM 62.0267 14.9853 288° West  Level Estimated
Thu 06:29:00 AM 62.0604 14.7562 287° West  Level Estimated
Thu 06:30:00 AM 62.0937 14.5265 287° West  Level Estimated
Thu 06:31:00 AM 62.1266 14.2963 287° West  Level Estimated
Thu 06:32:00 AM 62.1591 14.0657 287° West  Level Estimated
Thu 06:33:00 AM 62.1912 13.8345 287° West  Level Estimated
Thu 06:34:00 AM 62.2230 13.6028 286° West  Level Estimated
Thu 06:35:00 AM 62.2543 13.3707 286° West  Level Estimated
Thu 06:36:00 AM 62.2853 13.1381 286° West  Level Estimated
Thu 06:37:00 AM 62.3159 12.9050 286° West  Level Estimated
Thu 06:38:00 AM 62.3461 12.6715 286° West  Level Estimated
Thu 06:39:00 AM 62.3759 12.4374 285° West  Level Estimated
Thu 06:40:00 AM 62.4053 12.2029 285° West  Level Estimated
Thu 06:41:00 AM 62.4343 11.9680 285° West  Level Estimated
Thu 06:42:00 AM 62.4629 11.7326 285° West  Level Estimated
Thu 06:43:00 AM 62.4911 11.4967 285° West  Level Estimated
Thu 06:44:00 AM 62.5190 11.2605 284° West  Level Estimated
Thu 06:45:00 AM 62.5464 11.0237 284° West  Level Estimated
Thu 06:46:00 AM 62.5734 10.7866 284° West  Level Estimated
Thu 06:47:00 AM 62.6000 10.5490 284° West  Level Estimated
Thu 06:48:00 AM 62.6262 10.3110 284° West  Level Estimated
Thu 06:49:00 AM 62.6520 10.0725 283° West  Level Estimated
Thu 06:50:00 AM 62.6774 9.8337 283° West  Level Estimated
Thu 06:51:00 AM 62.7024 9.5944 283° West  Level Estimated
Thu 06:52:00 AM 62.7270 9.3548 283° West  Level Estimated
Thu 06:53:00 AM 62.7512 9.1147 283° West  Level Estimated
Thu 06:54:00 AM 62.7750 8.8743 282° West  Level Estimated
Thu 06:55:00 AM 62.7983 8.6334 282° West  Level Estimated
Thu 06:56:00 AM 62.8213 8.3923 282° West  Level Estimated
Thu 06:57:00 AM 62.8438 8.1507 282° West  Level Estimated
Thu 06:58:00 AM 62.8659 7.9087 281° West  Level Estimated
Thu 06:59:00 AM 62.8876 7.6664 281° West  Level Estimated
Thu 07:00:00 AM 62.9089 7.4237 281° West  Level Estimated
Thu 07:01:00 AM 62.9298 7.1807 281° West  Level Estimated
Thu 07:02:00 AM 62.9502 6.9374 281° West  Level Estimated
Thu 07:03:00 AM 62.9703 6.6937 280° West  Level Estimated
Thu 07:04:00 AM 62.9899 6.4497 280° West  Level Estimated
Thu 07:05:00 AM 63.0091 6.2053 280° West  Level Estimated
Thu 07:06:00 AM 63.0279 5.9607 280° West  Level Estimated
Thu 07:07:00 AM 63.0462 5.7157 279° West  Level Estimated
Thu 07:08:00 AM 63.0641 5.4704 279° West  Level Estimated
Thu 07:09:00 AM 63.0816 5.2248 279° West  Level Estimated
Thu 07:10:00 AM 63.0987 4.9790 279° West  Level Estimated
Thu 07:11:00 AM 63.1153 4.7328 279° West  Level Estimated
Thu 07:12:00 AM 63.1316 4.4864 278° West  Level Estimated
Thu 07:13:00 AM 63.1474 4.2396 278° West  Level Estimated
Thu 07:14:00 AM 63.1627 3.9927 278° West  Level Estimated
Thu 07:15:00 AM 63.1776 3.7455 278° West  Level Estimated
Thu 07:16:00 AM 63.1921 3.4980 278° West  Level Estimated
Thu 07:17:00 AM 63.2062 3.2502 277° West  Level Estimated
Thu 07:18:00 AM 63.2198 3.0023 277° West  Level Estimated
Thu 07:19:00 AM 63.2331 2.7541 277° West  Level Estimated
Thu 07:20:00 AM 63.2458 2.5057 277° West  Level Estimated
Thu 07:21:00 AM 63.2582 2.2570 276° West  Level Estimated
Thu 07:22:00 AM 63.2701 2.0082 276° West  Level Estimated
Thu 07:23:00 AM 63.2816 1.7592 276° West  Level Estimated
Thu 07:24:00 AM 63.2926 1.5099 276° West  Level Estimated
Thu 07:25:00 AM 63.3032 1.2605 276° West  Level Estimated
Thu 07:26:00 AM 63.3134 1.0109 275° West  Level Estimated
Thu 07:27:00 AM 63.3231 0.7611 275° West  Level Estimated
Thu 07:28:00 AM 63.3324 0.5112 275° West  Level Estimated
Thu 07:29:00 AM 63.3413 0.2610 275° West  Level Estimated
Thu 07:30:00 AM 63.3497 0.0108 274° West  Level Estimated
Thu 07:31:00 AM 63.3577 -0.2396 274° West  Level Estimated
Thu 07:32:00 AM 63.3652 -0.4901 274° West  Level Estimated
Thu 07:33:00 AM 63.3723 -0.7408 274° West  Level Estimated
Thu 07:34:00 AM 63.3790 -0.9916 274° West  Level Estimated
Thu 07:35:00 AM 63.3852 -1.2425 273° West  Level Estimated
Thu 07:36:00 AM 63.3910 -1.4935 273° West  Level Estimated
Thu 07:37:00 AM 63.3963 -1.7445 273° West  Level Estimated
Thu 07:38:00 AM 63.4012 -1.9957 273° West  Level Estimated
Thu 07:39:00 AM 63.4057 -2.2470 272° West  Level Estimated
Thu 07:40:00 AM 63.4097 -2.4983 272° West  Level Estimated
Thu 07:41:00 AM 63.4133 -2.7497 272° West  Level Estimated
Thu 07:42:00 AM 63.4164 -3.0012 272° West  Level Estimated
Thu 07:43:00 AM 63.4191 -3.2527 271° West  Level Estimated
Thu 07:44:00 AM 63.4214 -3.5043 271° West  Level Estimated
Thu 07:45:00 AM 63.4232 -3.7559 271° West  Level Estimated
Thu 07:46:00 AM 63.4245 -4.0075 271° West  Level Estimated
Thu 07:47:00 AM 63.4255 -4.2591 271° West  Level Estimated
Thu 07:48:00 AM 63.4260 -4.5108 270° West  Level Estimated
Thu 07:49:00 AM 63.4260 -4.7625 270° West  Level Estimated
Thu 07:50:00 AM 63.4256 -5.0141 270° West  Level Estimated
Thu 07:51:00 AM 63.4248 -5.2658 270° West  Level Estimated
Thu 07:52:00 AM 63.4235 -5.5174 269° West  Level Estimated
Thu 07:53:00 AM 63.4217 -5.7690 269° West  Level Estimated
Thu 07:54:00 AM 63.4196 -6.0206 269° West  Level Estimated
Thu 07:55:00 AM 63.4170 -6.2721 269° West  Level Estimated
Thu 07:56:00 AM 63.4139 -6.5236 269° West  Level Estimated
Thu 07:57:00 AM 63.4104 -6.7750 268° West  Level Estimated
Thu 07:58:00 AM 63.4065 -7.0263 268° West  Level Estimated
Thu 07:59:00 AM 63.4021 -7.2776 268° West  Level Estimated
Thu 08:00:00 AM 63.3973 -7.5288 268° West  Level Estimated
Thu 08:01:00 AM 63.3920 -7.7799 267° West  Level Estimated
Thu 08:02:00 AM 63.3863 -8.0309 267° West  Level Estimated
Thu 08:03:00 AM 63.3802 -8.2818 267° West  Level Estimated
Thu 08:04:00 AM 63.3736 -8.5326 267° West  Level Estimated
Thu 08:05:00 AM 63.3666 -8.7833 267° West  Level Estimated
Thu 08:06:00 AM 63.3591 -9.0339 266° West  Level Estimated
Thu 08:07:00 AM 63.3512 -9.2843 266° West  Level Estimated
Thu 08:08:00 AM 63.3429 -9.5346 266° West  Level Estimated
Thu 08:09:00 AM 63.3341 -9.7847 266° West  Level Estimated
Thu 08:10:00 AM 63.3249 -10.0347 265° West  Level Estimated
Thu 08:11:00 AM 63.3153 -10.2845 265° West  Level Estimated
Thu 08:12:00 AM 63.3052 -10.5341 265° West  Level Estimated
Thu 08:13:00 AM 63.2947 -10.7836 265° West  Level Estimated
Thu 08:14:00 AM 63.2837 -11.0329 265° West  Level Estimated
Thu 08:15:00 AM 63.2723 -11.2820 264° West  Level Estimated
Thu 08:16:00 AM 63.2605 -11.5308 264° West  Level Estimated
Thu 08:17:00 AM 63.2482 -11.7795 264° West  Level Estimated
Thu 08:18:00 AM 63.2355 -12.0280 264° West  Level Estimated
Thu 08:19:00 AM 63.2224 -12.2762 263° West  Level Estimated
Thu 08:20:00 AM 63.2088 -12.5242 263° West  Level Estimated
Thu 08:21:00 AM 63.1949 -12.7720 263° West  Level Estimated
Thu 08:22:00 AM 63.1804 -13.0195 263° West  Level Estimated
Thu 08:23:00 AM 63.1656 -13.2668 263° West  Level Estimated
Thu 08:24:00 AM 63.1503 -13.5138 262° West  Level Estimated
Thu 08:25:00 AM 63.1346 -13.7606 262° West  Level Estimated
Thu 08:26:00 AM 63.1185 -14.0071 262° West  Level Estimated
Thu 08:27:00 AM 63.1019 -14.2533 262° West  Level Estimated
Thu 08:28:00 AM 63.0849 -14.4992 261° West  Level Estimated
Thu 08:29:00 AM 63.0675 -14.7449 261° West  Level Estimated
Thu 08:30:00 AM 63.0496 -14.9902 261° West  Level Estimated
Thu 08:31:00 AM 63.0314 -15.2352 261° West  Level Estimated
Thu 08:32:00 AM 63.0127 -15.4799 261° West  Level Estimated
Thu 08:33:00 AM 62.9936 -15.7244 260° West  Level Estimated
Thu 08:34:00 AM 62.9740 -15.9684 260° West  Level Estimated
Thu 08:35:00 AM 62.9541 -16.2122 260° West  Level Estimated
Thu 08:36:00 AM 62.9337 -16.4556 260° West  Level Estimated
Thu 08:37:00 AM 62.9129 -16.6987 259° West  Level Estimated
Thu 08:38:00 AM 62.8917 -16.9414 259° West  Level Estimated
Thu 08:39:00 AM 62.8701 -17.1838 259° West  Level Estimated
Thu 08:40:00 AM 62.8480 -17.4258 259° West  Level Estimated
Thu 08:41:00 AM 62.8256 -17.6675 259° West  Level Estimated
Thu 08:42:00 AM 62.8027 -17.9088 258° West  Level Estimated
Thu 08:43:00 AM 62.7794 -18.1497 258° West  Level Estimated
Thu 08:44:00 AM 62.7558 -18.3902 258° West  Level Estimated
Thu 08:45:00 AM 62.7317 -18.6303 258° West  Level Estimated
Thu 08:46:00 AM 62.7071 -18.8700 258° West  Level Estimated
Thu 08:47:00 AM 62.6822 -19.1094 257° West  Level Estimated
Thu 08:48:00 AM 62.6569 -19.3483 257° West  Level Estimated
Thu 08:49:00 AM 62.6312 -19.5868 257° West  Level Estimated
Thu 08:50:00 AM 62.6050 -19.8249 257° West  Level Estimated
Thu 08:51:00 AM 62.5785 -20.0626 256° West  Level Estimated
Thu 08:52:00 AM 62.5516 -20.2998 256° West  Level Estimated
Thu 08:53:00 AM 62.5242 -20.5366 256° West  Level Estimated
Thu 08:54:00 AM 62.4965 -20.7730 256° West  Level Estimated
Thu 08:55:00 AM 62.4683 -21.0089 256° West  Level Estimated
Thu 08:56:00 AM 62.4398 -21.2444 255° West  Level Estimated
Thu 08:57:00 AM 62.4109 -21.4795 255° West  Level Estimated
Thu 08:58:00 AM 62.3815 -21.7141 255° West  Level Estimated
Thu 08:59:00 AM 62.3518 -21.9482 255° West  Level Estimated
Thu 09:00:00 AM 62.3217 -22.1818 255° West  Level Estimated
Thu 09:01:00 AM 62.2912 -22.4150 254° West  Level Estimated
Thu 09:02:00 AM 62.2603 -22.6477 254° West  Level Estimated
Thu 09:03:00 AM 62.2290 -22.8799 254° West  Level Estimated
Thu 09:04:00 AM 62.1973 -23.1117 254° West  Level Estimated
Thu 09:05:00 AM 62.1652 -23.3429 254° West  Level Estimated
Thu 09:06:00 AM 62.1328 -23.5737 253° West  Level Estimated
Thu 09:07:00 AM 62.1000 -23.8039 253° West  Level Estimated
Thu 09:08:00 AM 62.0668 -24.0337 253° West  Level Estimated
Thu 09:09:00 AM 62.0332 -24.2630 253° West  Level Estimated
Thu 09:10:00 AM 61.9992 -24.4917 253° West  Level Estimated
Thu 09:11:00 AM 61.9649 -24.7199 252° West  Level Estimated
Thu 09:12:00 AM 61.9301 -24.9477 252° West  Level Estimated
Thu 09:13:00 AM 61.8950 -25.1749 252° West  Level Estimated
Thu 09:14:00 AM 61.8596 -25.4015 252° West  Level Estimated
Thu 09:15:00 AM 61.8237 -25.6277 252° West  Level Estimated
Thu 09:16:00 AM 61.7875 -25.8533 251° West  Level Estimated
Thu 09:17:00 AM 61.7509 -26.0784 251° West  Level Estimated
Thu 09:18:00 AM 61.7140 -26.3029 251° West  Level Estimated
Thu 09:19:00 AM 61.6767 -26.5270 251° West  Level Estimated
Thu 09:20:00 AM 61.6390 -26.7504 251° West  Level Estimated
Thu 09:21:00 AM 61.6009 -26.9734 250° West  Level Estimated
Thu 09:22:00 AM 61.5625 -27.1957 250° West  Level Estimated
Thu 09:23:00 AM 61.5238 -27.4175 250° West  Level Estimated
Thu 09:24:00 AM 61.4846 -27.6388 250° West  Level Estimated
Thu 09:25:00 AM 61.4451 -27.8595 250° West  Level Estimated
Thu 09:26:00 AM 61.4053 -28.0796 249° West  Level Estimated
Thu 09:27:00 AM 61.3651 -28.2992 249° West  Level Estimated
Thu 09:28:00 AM 61.3246 -28.5182 249° West  Level Estimated
Thu 09:29:00 AM 61.2837 -28.7367 249° West  Level Estimated
Thu 09:30:00 AM 61.2379 -28.9780 249° West  Level Estimated
Thu 09:31:00 AM 61.1918 -29.2188 248° West  Level Estimated
Thu 09:32:00 AM 61.1451 -29.4590 248° West  Level Estimated
Thu 09:33:00 AM 61.0981 -29.6984 248° West  Level Estimated
Thu 09:34:00 AM 61.0507 -29.9371 248° West  Level Estimated
Thu 09:35:00 AM 61.0028 -30.1751 248° West  Level Estimated
Thu 09:36:00 AM 60.9545 -30.4124 247° West  Level Estimated
Thu 09:37:00 AM 60.9058 -30.6490 247° West  Level Estimated
Thu 09:38:00 AM 60.8566 -30.8848 247° West  Level Estimated
Thu 09:39:00 AM 60.8071 -31.1199 247° West  Level Estimated
Thu 09:40:00 AM 60.7571 -31.3543 247° West  Level Estimated
Thu 09:41:00 AM 60.7068 -31.5879 246° West  Level Estimated
Thu 09:42:00 AM 60.6560 -31.8208 246° West  Level Estimated
Thu 09:43:00 AM 60.6049 -32.0530 246° West  Level Estimated
Thu 09:44:00 AM 60.5533 -32.2844 246° West  Level Estimated
Thu 09:45:00 AM 60.5013 -32.5151 246° West  Level Estimated
Thu 09:46:00 AM 60.4490 -32.7451 245° Southwest  Level Estimated
Thu 09:47:00 AM 60.3962 -32.9743 245° Southwest  Level Estimated
Thu 09:48:00 AM 60.3430 -33.2028 245° Southwest  Level Estimated
Thu 09:49:00 AM 60.2895 -33.4305 245° Southwest  Level Estimated
Thu 09:50:00 AM 60.2356 -33.6575 245° Southwest  Level Estimated
Thu 09:51:00 AM 60.1813 -33.8837 244° Southwest  Level Estimated
Thu 09:52:00 AM 60.1266 -34.1092 244° Southwest  Level Estimated
Thu 09:53:00 AM 60.0715 -34.3339 244° Southwest  Level Estimated
Thu 09:54:00 AM 60.0160 -34.5579 244° Southwest  Level Estimated
Thu 09:55:00 AM 59.9602 -34.7811 244° Southwest  Level Estimated
Thu 09:56:00 AM 59.9040 -35.0036 243° Southwest  Level Estimated
Thu 09:57:00 AM 59.8474 -35.2253 243° Southwest  Level Estimated
Thu 09:58:00 AM 59.7904 -35.4462 243° Southwest  Level Estimated
Thu 09:59:00 AM 59.7331 -35.6664 243° Southwest  Level Estimated
Thu 10:00:00 AM 59.6754 -35.8859 243° Southwest  Level Estimated
Thu 10:01:00 AM 59.6173 -36.1046 242° Southwest  Level Estimated
Thu 10:02:00 AM 59.5589 -36.3225 242° Southwest  Level Estimated
Thu 10:03:00 AM 59.5001 -36.5397 242° Southwest  Level Estimated
Thu 10:04:00 AM 59.4410 -36.7561 242° Southwest  Level Estimated
Thu 10:05:00 AM 59.3815 -36.9718 242° Southwest  Level Estimated
Thu 10:06:00 AM 59.3217 -37.1867 241° Southwest  Level Estimated
Thu 10:07:00 AM 59.2614 -37.4008 241° Southwest  Level Estimated
Thu 10:08:00 AM 59.2009 -37.6142 241° Southwest  Level Estimated
Thu 10:09:00 AM 59.1400 -37.8268 241° Southwest  Level Estimated
Thu 10:10:00 AM 59.0787 -38.0387 241° Southwest  Level Estimated
Thu 10:11:00 AM 59.0171 -38.2498 241° Southwest  Level Estimated
Thu 10:12:00 AM 58.9552 -38.4602 240° Southwest  Level Estimated
Thu 10:13:00 AM 58.8929 -38.6698 240° Southwest  Level Estimated
Thu 10:14:00 AM 58.8303 -38.8786 240° Southwest  Level Estimated
Thu 10:15:00 AM 58.7673 -39.0867 240° Southwest  Level Estimated
Thu 10:16:00 AM 58.7041 -39.2940 240° Southwest  Level Estimated
Thu 10:17:00 AM 58.6404 -39.5006 239° Southwest  Level Estimated
Thu 10:18:00 AM 58.5765 -39.7065 239° Southwest  Level Estimated
Thu 10:19:00 AM 58.5122 -39.9115 239° Southwest  Level Estimated
Thu 10:20:00 AM 58.4476 -40.1158 239° Southwest  Level Estimated
Thu 10:21:00 AM 58.3827 -40.3194 239° Southwest  Level Estimated
Thu 10:22:00 AM 58.3175 -40.5222 239° Southwest  Level Estimated
Thu 10:23:00 AM 58.2519 -40.7243 238° Southwest  Level Estimated
Thu 10:24:00 AM 58.1860 -40.9256 238° Southwest  Level Estimated
Thu 10:25:00 AM 58.1198 -41.1262 238° Southwest  Level Estimated
Thu 10:26:00 AM 58.0533 -41.3260 238° Southwest  Level Estimated
Thu 10:27:00 AM 57.9865 -41.5251 238° Southwest  Level Estimated
Thu 10:28:00 AM 57.9193 -41.7235 238° Southwest  Level Estimated
Thu 10:29:00 AM 57.8519 -41.9211 237° Southwest  Level Estimated
Thu 10:30:00 AM 57.7842 -42.1180 237° Southwest  Level Estimated
Thu 10:31:00 AM 57.7161 -42.3141 237° Southwest  Level Estimated
Thu 10:32:00 AM 57.6478 -42.5095 237° Southwest  Level Estimated
Thu 10:33:00 AM 57.5791 -42.7041 237° Southwest  Level Estimated
Thu 10:34:00 AM 57.5102 -42.8979 237° Southwest  Level Estimated
Thu 10:35:00 AM 57.4410 -43.0910 236° Southwest  Level Estimated
Thu 10:36:00 AM 57.3715 -43.2834 236° Southwest  Level Estimated
Thu 10:37:00 AM 57.3017 -43.4751 236° Southwest  Level Estimated
Thu 10:37:09 AM 63.1333 -56.8167 235° Southwest 440 506 37,000  Level Gander Center
Thu 10:38:00 AM 57.2315 -43.6660 236° Southwest  Level Estimated
Thu 10:38:09 AM 63.0667 -57.0000 231° Southwest 430 495 37,000  Level Gander Center
Thu 10:39:00 AM 57.1612 -43.8562 236° Southwest  Level Estimated
Thu 10:39:09 AM 63.0000 -57.2333 238° Southwest 440 506 37,000  Level Gander Center
Thu 10:40:00 AM 57.0905 -44.0457 236° Southwest  Level Estimated
Thu 10:40:09 AM 62.9167 -57.4667 232° Southwest 430 495 37,000  Level Gander Center
Thu 10:41:00 AM 57.0195 -44.2344 235° Southwest  Level Estimated
Thu 10:41:09 AM 62.8667 -57.6833 243° Southwest 440 506 37,000  Level Gander Center
Thu 10:42:00 AM 56.9483 -44.4224 235° Southwest  Level Estimated
Thu 10:42:09 AM 62.8000 -57.8833 234° Southwest 440 506 37,000  Level Gander Center
Thu 10:43:09 AM 62.7167 -58.1000 230° Southwest 440 506 37,000  Level Gander Center
Thu 10:44:09 AM 62.6667 -58.3167 243° Southwest 440 506 37,000  Level Gander Center
Thu 10:45:09 AM 62.6000 -58.5500 238° Southwest 440 506 37,000  Level Gander Center
Thu 10:46:14 AM 62.5000 -58.7333 220° Southwest 430 495 37,000  Level Montreal Center
Thu 10:47:14 AM 62.4333 -58.9500 236° Southwest 430 495 37,000  Level Montreal Center
Thu 10:48:14 AM 62.3500 -59.1500 228° Southwest 430 495 37,000  Level Montreal Center
Thu 10:49:14 AM 62.3000 -59.3667 244° Southwest 430 495 37,000  Level Montreal Center
Thu 10:50:14 AM 62.2167 -59.5833 231° Southwest 440 506 37,000  Level Montreal Center
Thu 10:51:14 AM 62.1333 -59.7833 228° Southwest 440 506 37,000  Level Montreal Center
Thu 10:52:14 AM 62.0833 -60.0000 244° Southwest 440 506 37,000  Level Montreal Center
Thu 10:53:14 AM 62.0000 -60.2167 231° Southwest 440 506 37,000  Level Montreal Center
Thu 10:54:14 AM 61.9167 -60.4000 226° Southwest 440 506 37,000  Level Montreal Center
Thu 10:55:14 AM 61.8667 -60.5667 238° Southwest 440 506 37,000  Level Montreal Center
Thu 10:56:14 AM 61.8000 -60.7833 237° Southwest 440 506 37,000  Level Montreal Center
Thu 10:57:14 AM 61.7167 -60.9667 226° Southwest 440 506 37,000  Level Montreal Center
Thu 10:58:09 AM 61.6500 -61.2500 244° Southwest 440 506 37,000  Level Gander Center
Thu 10:59:09 AM 61.5833 -61.4500 235° Southwest 440 506 37,000 450 Level Gander Center
Thu 11:00:09 AM 61.5000 -61.6667 231° Southwest 440 506 37,900 480 Climbing Gander Center
Thu 11:01:14 AM 61.4167 -61.8000 217° Southwest 440 506 38,000 48 Climbing Montreal Center
Thu 11:02:14 AM 61.3500 -62.0000 235° Southwest 440 506 38,000  Level Montreal Center
Thu 11:03:14 AM 61.2667 -62.2167 231° Southwest 440 506 38,000  Level Montreal Center
Thu 11:04:14 AM 61.1833 -62.4167 229° Southwest 440 506 38,000  Level Montreal Center
Thu 11:05:14 AM 61.1167 -62.6000 233° Southwest 440 506 38,000  Level Montreal Center
Thu 11:06:14 AM 61.0333 -62.8000 229° Southwest 440 506 38,000  Level Montreal Center
Thu 11:07:14 AM 60.9500 -63.0167 232° Southwest 440 506 38,000  Level Montreal Center
Thu 11:08:14 AM 60.8667 -63.2167 229° Southwest 460 529 38,000  Level Montreal Center
Thu 11:09:14 AM 60.8000 -63.4333 238° Southwest 440 506 38,000  Level Montreal Center
Thu 11:10:14 AM 60.7167 -63.6333 230° Southwest 440 506 38,000  Level Montreal Center
Thu 11:11:14 AM 60.6333 -63.8333 230° Southwest 440 506 38,000  Level Montreal Center
Thu 11:12:14 AM 60.5500 -64.0333 230° Southwest 440 506 38,000  Level Montreal Center
Thu 11:13:14 AM 60.4667 -64.2000 225° Southwest 440 506 38,000  Level Montreal Center
Thu 11:14:14 AM 60.4000 -64.4000 236° Southwest 440 506 38,000  Level Montreal Center
Thu 11:15:14 AM 60.3167 -64.6000 230° Southwest 440 506 38,000  Level Montreal Center
Thu 11:16:14 AM 60.2500 -64.7667 231° Southwest 440 506 38,000  Level Montreal Center
Thu 11:17:14 AM 60.1667 -64.9667 230° Southwest 440 506 38,000  Level Montreal Center
Thu 11:18:14 AM 60.0667 -65.1500 222° Southwest 440 506 38,000  Level Montreal Center
Thu 11:19:14 AM 59.9833 -65.3167 225° Southwest 440 506 38,000  Level Montreal Center
Thu 11:20:14 AM 59.9000 -65.4833 225° Southwest 440 506 38,000  Level Montreal Center
Thu 11:21:14 AM 59.8000 -65.6500 220° Southwest 440 506 38,000  Level Montreal Center
Thu 11:22:14 AM 59.7000 -65.7833 214° Southwest 450 518 38,000  Level Montreal Center
Thu 11:23:15 AM 59.6167 -65.9333 222° Southwest 450 518 38,000  Level Montreal Center
Thu 11:24:15 AM 59.5167 -66.1000 220° Southwest 450 518 38,000  Level Montreal Center
Thu 11:25:15 AM 59.4167 -66.3000 226° Southwest 450 518 38,000  Level Montreal Center
Thu 11:26:15 AM 59.3333 -66.4500 223° Southwest 450 518 38,000  Level Montreal Center
Thu 11:27:15 AM 59.2333 -66.6167 220° Southwest 450 518 38,000  Level Montreal Center
Thu 11:28:15 AM 59.1333 -66.7667 218° Southwest 450 518 38,000  Level Montreal Center
Thu 11:29:15 AM 59.0333 -66.9333 221° Southwest 450 518 38,000  Level Montreal Center
Thu 11:30:15 AM 58.9500 -67.0833 223° Southwest 450 518 38,000  Level Montreal Center
Thu 11:31:15 AM 58.8500 -67.2333 218° Southwest 450 518 38,000  Level Montreal Center
Thu 11:32:15 AM 58.7500 -67.4000 221° Southwest 450 518 38,000  Level Montreal Center
Thu 11:33:15 AM 58.6500 -67.5500 218° Southwest 450 518 38,000  Level Montreal Center
Thu 11:34:15 AM 58.5667 -67.7000 223° Southwest 450 518 38,000  Level Montreal Center
Thu 11:35:15 AM 58.4667 -67.8500 218° Southwest 450 518 38,000  Level Montreal Center
Thu 11:36:15 AM 58.3667 -68.0000 218° Southwest 450 518 38,000  Level Montreal Center
Thu 11:37:15 AM 58.2667 -68.1500 218° Southwest 450 518 38,000  Level Montreal Center
Thu 11:38:15 AM 58.1667 -68.3000 218° Southwest 470 541 38,000  Level Montreal Center
Thu 11:40:13 AM 57.9667 -68.5667 215° Southwest 460 529 38,000  Level Montreal Center
Thu 11:41:13 AM 57.8833 -68.7167 224° Southwest 450 518 38,000  Level Montreal Center
Thu 11:42:13 AM 57.7667 -68.8500 211° Southwest 450 518 38,000  Level Montreal Center
Thu 11:43:13 AM 57.6833 -68.9667 217° Southwest 450 518 38,000  Level Montreal Center
Thu 11:44:13 AM 57.5667 -69.1167 215° Southwest 450 518 38,000  Level Montreal Center
Thu 11:45:13 AM 57.4667 -69.2667 219° Southwest 450 518 38,000  Level Montreal Center
Thu 11:46:13 AM 57.3667 -69.4000 216° Southwest 450 518 38,000  Level Montreal Center
Thu 11:47:13 AM 57.2500 -69.5167 208° Southwest 450 518 38,000  Level Montreal Center
Thu 11:48:13 AM 57.1500 -69.6333 212° Southwest 450 518 38,000  Level Montreal Center
Thu 11:49:13 AM 57.0500 -69.7667 216° Southwest 450 518 38,000  Level Montreal Center
Thu 11:50:13 AM 56.9333 -69.8833 209° Southwest 450 518 38,000  Level Montreal Center
Thu 11:51:13 AM 56.8167 -70.0000 209° Southwest 450 518 38,000  Level Montreal Center
Thu 11:52:13 AM 56.7000 -70.1333 212° Southwest 450 518 38,000  Level Montreal Center
Thu 11:53:13 AM 56.6167 -70.2333 213° Southwest 450 518 38,000  Level Montreal Center
Thu 11:54:13 AM 56.5000 -70.3500 209° Southwest 450 518 38,000  Level Montreal Center
Thu 11:55:13 AM 56.3833 -70.4833 212° Southwest 450 518 38,000  Level Montreal Center
Thu 11:56:13 AM 56.2833 -70.5833 209° Southwest 450 518 38,000  Level Montreal Center
Thu 11:57:13 AM 56.1667 -70.7000 209° Southwest 450 518 38,000  Level Montreal Center
Thu 11:58:13 AM 56.0667 -70.8000 209° Southwest 450 518 38,000  Level Montreal Center
Thu 11:59:13 AM 55.9500 -70.9333 213° Southwest 460 529 38,000  Level Montreal Center
Thu 12:00:13 PM 55.8333 -71.0500 209° Southwest 450 518 38,000  Level Montreal Center
Thu 12:01:13 PM 55.7167 -71.1500 206° Southwest 450 518 38,000  Level Montreal Center
Thu 12:02:13 PM 55.6167 -71.2500 209° Southwest 450 518 38,000  Level Montreal Center
Thu 12:03:13 PM 55.5167 -71.3833 217° Southwest 450 518 38,000  Level Montreal Center
Thu 12:04:13 PM 55.4000 -71.4833 206° Southwest 450 518 38,000  Level Montreal Center
Thu 12:05:13 PM 55.3000 -71.5833 210° Southwest 450 518 38,000  Level Montreal Center
Thu 12:06:13 PM 55.1833 -71.6833 206° Southwest 450 518 38,000  Level Montreal Center
Thu 12:07:13 PM 55.0667 -71.8167 213° Southwest 450 518 38,000  Level Montreal Center
Thu 12:08:13 PM 54.9500 -71.9167 206° Southwest 450 518 38,000  Level Montreal Center
Thu 12:09:13 PM 54.8500 -72.0167 210° Southwest 450 518 38,000  Level Montreal Center
Thu 12:10:13 PM 54.7500 -72.1167 210° Southwest 450 518 38,000  Level Montreal Center
Thu 12:11:13 PM 54.6333 -72.2333 210° Southwest 450 518 38,000  Level Montreal Center
Thu 12:12:13 PM 54.5167 -72.3333 206° Southwest 450 518 38,000  Level Montreal Center
Thu 12:13:13 PM 54.4000 -72.4333 207° Southwest 450 518 38,000  Level Montreal Center
Thu 12:14:13 PM 54.3000 -72.5500 214° Southwest 460 529 38,000  Level Montreal Center
Thu 12:15:13 PM 54.1833 -72.6500 207° Southwest 450 518 38,000  Level Montreal Center
Thu 12:16:13 PM 54.0667 -72.7500 207° Southwest 450 518 38,000  Level Montreal Center
Thu 12:17:13 PM 53.9500 -72.8667 210° Southwest 460 529 38,000  Level Montreal Center
Thu 12:18:13 PM 53.8333 -72.9667 207° Southwest 460 529 38,000  Level Montreal Center
Thu 12:19:13 PM 53.7500 -73.0667 215° Southwest 450 518 38,000  Level Montreal Center
Thu 12:20:13 PM 53.6333 -73.1833 211° Southwest 450 518 38,000  Level Montreal Center
Thu 12:21:13 PM 53.5167 -73.2667 203° Southwest 450 518 38,000  Level Montreal Center
Thu 12:22:13 PM 53.4000 -73.3667 207° Southwest 450 518 38,000  Level Montreal Center
Thu 12:23:13 PM 53.3000 -73.4500 206° Southwest 460 529 38,000  Level Montreal Center
Thu 12:24:13 PM 53.1667 -73.5833 211° Southwest 450 518 38,000  Level Montreal Center
Thu 12:25:13 PM 53.0500 -73.6667 203° Southwest 460 529 38,000  Level Montreal Center
Thu 12:26:13 PM 52.9500 -73.7833 215° Southwest 460 529 38,000  Level Montreal Center
Thu 12:27:13 PM 52.8333 -73.8667 203° Southwest 450 518 38,000  Level Montreal Center
Thu 12:28:13 PM 52.7167 -73.9667 207° Southwest 460 529 38,000  Level Montreal Center
Thu 12:29:13 PM 52.6000 -74.0833 211° Southwest 460 529 38,000  Level Montreal Center
Thu 12:30:13 PM 52.4833 -74.1667 204° Southwest 460 529 38,000  Level Montreal Center
Thu 12:31:13 PM 52.3833 -74.2500 207° Southwest 460 529 38,000  Level Montreal Center
Thu 12:32:13 PM 52.2667 -74.3667 211° Southwest 450 518 38,000  Level Montreal Center
Thu 12:33:13 PM 52.1500 -74.4500 204° Southwest 430 495 38,000  Level Montreal Center
Thu 12:34:13 PM 52.0333 -74.5333 204° Southwest 460 529 38,000  Level Montreal Center
Thu 12:35:13 PM 51.9167 -74.6500 212° Southwest 470 541 38,000  Level Montreal Center
Thu 12:36:13 PM 51.8000 -74.7333 204° Southwest 460 529 38,000  Level Montreal Center
Thu 12:37:13 PM 51.6833 -74.8167 204° Southwest 460 529 38,000  Level Montreal Center
Thu 12:38:13 PM 51.5833 -74.9000 207° Southwest 460 529 38,000  Level Montreal Center
Thu 12:39:13 PM 51.4667 -75.0167 212° Southwest 460 529 38,000  Level Montreal Center
Thu 12:40:13 PM 51.3500 -75.1000 204° Southwest 460 529 38,000  Level Montreal Center
Thu 12:41:13 PM 51.2333 -75.1833 204° Southwest 460 529 38,000  Level Montreal Center
Thu 12:42:13 PM 51.1167 -75.3000 212° Southwest 460 529 38,000  Level Montreal Center
Thu 12:43:13 PM 51.0167 -75.3833 208° Southwest 460 529 38,000  Level Montreal Center
Thu 12:44:13 PM 50.8833 -75.4833 205° Southwest 450 518 38,000  Level Montreal Center
Thu 12:45:13 PM 50.7833 -75.5667 208° Southwest 460 529 38,000  Level Montreal Center
Thu 12:46:13 PM 50.6667 -75.6500 204° Southwest 460 529 38,000  Level Montreal Center
Thu 12:47:13 PM 50.5500 -75.7333 204° Southwest 460 529 38,000  Level Montreal Center
Thu 12:48:13 PM 50.4333 -75.8333 209° Southwest 460 529 38,000  Level Montreal Center
Thu 12:49:13 PM 50.3167 -75.9167 205° Southwest 460 529 38,000  Level Montreal Center
Thu 12:50:13 PM 50.2000 -76.0167 209° Southwest 450 518 38,000  Level Montreal Center
Thu 12:51:13 PM 50.1000 -76.1000 208° Southwest 450 518 38,000  Level Montreal Center
Thu 12:52:13 PM 49.9667 -76.1667 198° South 460 529 38,000  Level Montreal Center
Thu 12:53:13 PM 49.8500 -76.2500 205° Southwest 450 518 38,000  Level Montreal Center
Thu 12:54:13 PM 49.7333 -76.3500 209° Southwest 460 529 38,000  Level Montreal Center
Thu 12:55:13 PM 49.6167 -76.4333 205° Southwest 450 518 38,000  Level Montreal Center
Thu 12:56:13 PM 49.5167 -76.5167 208° Southwest 460 529 38,000  Level Montreal Center
Thu 12:57:13 PM 49.3833 -76.6167 206° Southwest 460 529 38,000  Level Montreal Center
Thu 12:58:13 PM 49.2833 -76.6833 204° Southwest 460 529 38,000  Level Montreal Center
Thu 12:59:13 PM 49.1667 -76.7833 209° Southwest 460 529 38,000  Level Montreal Center
Thu 01:00:13 PM 49.0500 -76.8667 205° Southwest 460 529 38,000  Level Montreal Center
Thu 01:01:13 PM 48.9333 -76.9333 201° Southwest 450 518 38,000  Level Montreal Center
Thu 01:02:13 PM 48.8167 -77.0167 205° Southwest 460 529 38,000  Level Montreal Center
Thu 01:03:13 PM 48.7167 -77.1167 213° Southwest 450 518 38,000  Level Montreal Center
Thu 01:04:13 PM 48.5833 -77.1833 198° South 450 518 38,000  Level Montreal Center
Thu 01:05:13 PM 48.4667 -77.2667 205° Southwest 450 518 38,000  Level Montreal Center
Thu 01:06:13 PM 48.3500 -77.3500 205° Southwest 450 518 38,000  Level Montreal Center
Thu 01:07:13 PM 48.2500 -77.4333 209° Southwest 450 518 38,000  Level Montreal Center
Thu 01:08:13 PM 48.1333 -77.5000 201° Southwest 450 518 38,000  Level Montreal Center
Thu 01:09:13 PM 48.0167 -77.6000 210° Southwest 450 518 38,000  Level Montreal Center
Thu 01:10:13 PM 47.9000 -77.6667 201° Southwest 450 518 38,000  Level Montreal Center
Thu 01:11:13 PM 47.7833 -77.7333 201° Southwest 450 518 38,000  Level Montreal Center
Thu 01:12:13 PM 47.6667 -77.8167 206° Southwest 450 518 38,000  Level Montreal Center
Thu 01:13:13 PM 47.5500 -77.9000 206° Southwest 450 518 38,000  Level Montreal Center
Thu 01:14:13 PM 47.4333 -77.9833 206° Southwest 450 518 38,000  Level Montreal Center
Thu 01:15:13 PM 47.3167 -78.0500 201° Southwest 450 518 38,000  Level Montreal Center
Thu 01:16:13 PM 47.2167 -78.1500 214° Southwest 450 518 38,000  Level Montreal Center
Thu 01:17:13 PM 47.1000 -78.2167 201° Southwest 450 518 38,000  Level Montreal Center
Thu 01:18:13 PM 46.9833 -78.2833 201° Southwest 450 518 38,000  Level Montreal Center
Thu 01:19:13 PM 46.8667 -78.3667 206° Southwest 450 518 38,000  Level Montreal Center
Thu 01:20:13 PM 46.7500 -78.4333 201° Southwest 450 518 38,000  Level Montreal Center
Thu 01:21:13 PM 46.6333 -78.5167 206° Southwest 450 518 38,000  Level Montreal Center
Thu 01:26:55 PM 45.9813 -78.9320 206° Southwest 451 519 38,000  Level FlightAware ADS-B
Thu 01:27:32 PM 45.9134 -78.9749 204° Southwest 450 518 38,000  Level FlightAware ADS-B
Thu 01:28:11 PM 45.8370 -79.0230 204° Southwest 448 516 38,000  Level FlightAware ADS-B
Thu 01:31:14 PM 45.4951 -79.2363 204° Southwest 452 520 38,000  Level FlightAware ADS-B
Thu 01:31:51 PM 45.4196 -79.2832 204° Southwest 453 521 38,000  Level FlightAware ADS-B
Thu 01:32:28 PM 45.3481 -79.3274 203° Southwest 453 521 38,000  Level FlightAware ADS-B
Thu 01:33:00 PM 45.2877 -79.3646 203° Southwest 452 520 38,000  Level FlightAware ADS-B
Thu 01:34:26 PM 45.1233 -79.4656 203° Southwest 450 518 38,000  Level FlightAware ADS-B
Thu 01:35:24 PM 45.0145 -79.5320 203° Southwest 448 516 38,000  Level FlightAware ADS-B
Thu 01:36:16 PM 44.9197 -79.5895 203° Southwest 446 513 38,000  Level FlightAware ADS-B
Thu 01:40:16 PM 44.4817 -79.8827 206° Southwest 437 503 38,000  Level FlightAware ADS-B
Thu 01:42:40 PM 44.2290 -80.1108 213° Southwest 436 502 38,000  Level FlightAware ADS-B
Thu 01:43:57 PM 44.0982 -80.2271 213° Southwest 437 503 38,000  Level FlightAware ADS-B
Thu 01:44:41 PM 44.0273 -80.2899 212° Southwest 434 499 38,000  Level FlightAware ADS-B
Thu 01:45:11 PM 43.9722 -80.3387 213° Southwest 434 499 38,000  Level FlightAware ADS-B
Thu 01:45:44 PM 43.9182 -80.3865 212° Southwest 433 498 38,000  Level FlightAware ADS-B (EHLW)
Thu 01:46:22 PM 43.8569 -80.4405 212° Southwest 433 498 38,000  Level FlightAware ADS-B
Thu 01:46:54 PM 43.7979 -80.4922 212° Southwest 433 498 38,000  Level FlightAware ADS-B
Thu 01:47:38 PM 43.7266 -80.5546 212° Southwest 433 498 38,000  Level FlightAware ADS-B
Thu 01:48:15 PM 43.6687 -80.6053 212° Southwest 433 498 38,000  Level FlightAware ADS-B
Thu 01:49:00 PM 43.5946 -80.6699 212° Southwest 434 499 38,000  Level FlightAware ADS-B
Thu 01:49:40 PM 43.5251 -80.7302 212° Southwest 433 498 38,000  Level FlightAware ADS-B
Thu 01:50:21 PM 43.4505 -80.7948 212° Southwest 432 497 38,000  Level FlightAware ADS-B
Thu 01:51:00 PM 43.3841 -80.8521 212° Southwest 432 497 38,000  Level FlightAware ADS-B
Thu 01:52:02 PM 43.2829 -80.9394 212° Southwest 431 496 38,000  Level FlightAware ADS-B
Thu 01:52:41 PM 43.2129 -80.9995 212° Southwest 430 495 38,000  Level FlightAware ADS-B
Thu 01:53:21 PM 43.1459 -81.0569 212° Southwest 429 494 38,000  Level FlightAware ADS-B
Thu 01:54:02 PM 43.0781 -81.1147 212° Southwest 429 494 38,000  Level FlightAware ADS-B
Thu 01:54:41 PM 43.0087 -81.1663 209° Southwest 436 502 38,000  Level FlightAware ADS-B
Thu 01:55:22 PM 42.9348 -81.2117 204° Southwest 434 499 38,000  Level FlightAware ADS-B
Thu 01:56:01 PM 42.8661 -81.2551 205° Southwest 434 499 38,000  Level FlightAware ADS-B
Thu 01:56:35 PM 42.8004 -81.2958 204° Southwest 435 501 38,000  Level FlightAware ADS-B
Thu 01:57:21 PM 42.7172 -81.3469 204° Southwest 435 501 38,000  Level FlightAware ADS-B
Thu 01:57:59 PM 42.6477 -81.3895 204° Southwest 435 501 38,000  Level FlightAware ADS-B
Thu 01:59:01 PM 42.5330 -81.4594 204° Southwest 434 499 38,000  Level FlightAware ADS-B
Thu 01:59:36 PM 42.4738 -81.4955 204° Southwest 433 498 38,000  Level FlightAware ADS-B
Thu 02:00:18 PM 42.3833 -81.5333 204° Southwest 430 495 38,000  Level Toronto Center
Thu 02:01:18 PM 42.2833 -81.6000 206° Southwest 430 495 38,000  Level Toronto Center
Thu 02:02:18 PM 42.1667 -81.6500 198° South 430 495 38,000  Level Toronto Center
Thu 02:03:18 PM 42.0667 -81.7167 206° Southwest 430 495 38,000  Level Toronto Center
Thu 02:04:37 PM 41.9269 -81.8253 210° Southwest 432 497 38,000  Level Cleveland Center
Thu 02:05:39 PM 41.8181 -81.8878 203° Southwest 426 490 38,000  Level Cleveland Center
Thu 02:06:41 PM 41.7083 -81.9547 204° Southwest 427 491 38,000  Level Cleveland Center
Thu 02:07:43 PM 41.5994 -82.0200 204° Southwest 427 491 38,000  Level Cleveland Center
Thu 02:08:45 PM 41.4903 -82.0836 204° Southwest 427 491 38,000  Level Cleveland Center
Thu 02:09:47 PM 41.3636 -82.1569 203° Southwest 427 491 38,000  Level Cleveland Center
Thu 02:10:49 PM 41.2489 -82.1989 195° South 427 491 38,000  Level Cleveland Center
Thu 02:11:51 PM 41.1331 -82.2422 196° South 429 494 38,000  Level Cleveland Center
Thu 02:12:53 PM 41.0161 -82.2839 195° South 430 495 38,000  Level Cleveland Center
Thu 02:13:55 PM 40.8989 -82.3256 195° South 431 496 38,000  Level Cleveland Center
Thu 02:14:57 PM 40.7825 -82.3675 195° South 431 496 38,000  Level Cleveland Center
Thu 02:15:59 PM 40.6461 -82.4142 195° South 432 497 38,000  Level Cleveland Center
Thu 02:17:12 PM 40.5111 -82.4625 195° South 426 490 38,000  Level Indianapolis Center
Thu 02:22:48 PM 39.8460 -82.6092 195° South 440 506 38,000  Level FlightAware ADS-B
Thu 02:23:23 PM 39.7818 -82.6135 183° South 438 504 38,000  Level FlightAware ADS-B
Thu 02:24:07 PM 39.6847 -82.6201 183° South 439 505 38,000  Level FlightAware ADS-B
Thu 02:24:38 PM 39.6221 -82.6244 183° South 438 504 38,000  Level FlightAware ADS-B
Thu 02:25:23 PM 39.5321 -82.6304 183° South 437 503 38,000  Level FlightAware ADS-B
Thu 02:26:22 PM 39.4137 -82.6383 183° South 435 501 38,000  Level FlightAware ADS-B
Thu 02:26:52 PM 39.3522 -82.6423 183° South 433 498 38,000  Level FlightAware ADS-B
Thu 02:27:38 PM 39.2626 -82.6484 183° South 431 496 38,000  Level FlightAware ADS-B
Thu 02:28:08 PM 39.2024 -82.6524 183° South 431 496 38,000  Level FlightAware ADS-B
Thu 02:28:51 PM 39.1171 -82.6581 183° South 431 496 38,000  Level FlightAware ADS-B
Thu 02:29:22 PM 39.0609 -82.6618 183° South 432 497 38,000  Level FlightAware ADS-B
Thu 02:30:08 PM 38.9675 -82.6680 183° South 433 498 38,000  Level FlightAware ADS-B
Thu 02:30:38 PM 38.9038 -82.6721 183° South 434 499 38,000  Level FlightAware ADS-B
Thu 02:31:23 PM 38.8140 -82.6780 183° South 434 499 38,000  Level FlightAware ADS-B
Thu 02:31:53 PM 38.7563 -82.6818 183° South 435 501 38,000  Level FlightAware ADS-B
Thu 02:32:36 PM 38.6655 -82.6877 183° South 435 501 38,000  Level FlightAware ADS-B
Thu 02:33:08 PM 38.6078 -82.6915 183° South 434 499 38,000  Level FlightAware ADS-B
Thu 02:33:48 PM 38.5216 -82.6971 183° South 434 499 38,000  Level FlightAware ADS-B
Thu 02:34:46 PM 38.4242 -82.7019 183° South 430 495 38,000  Level Indianapolis Center
Thu 02:35:48 PM 38.3044 -82.7108 183° South 429 494 38,000  Level Indianapolis Center
Thu 02:36:50 PM 38.1669 -82.7186 183° South 425 489 38,000  Level Indianapolis Center
Thu 02:37:52 PM 38.0494 -82.7292 184° South 422 486 38,000  Level Indianapolis Center
Thu 02:38:55 PM 37.9300 -82.7356 182° South 427 491 38,000  Level Indianapolis Center
Thu 02:39:57 PM 37.8117 -82.7439 183° South 425 489 38,000  Level Indianapolis Center
Thu 02:40:59 PM 37.6947 -82.7592 186° South 422 486 38,000  Level Indianapolis Center
Thu 02:42:01 PM 37.5786 -82.8150 201° Southwest 386 444 38,000  Level Indianapolis Center
Thu 02:43:03 PM 37.4875 -82.8775 209° Southwest 372 428 38,000  Level Indianapolis Center
Thu 02:44:05 PM 37.3964 -82.9378 208° Southwest 372 428 38,000  Level Indianapolis Center
Thu 02:45:07 PM 37.3064 -82.9967 207° Southwest 366 421 38,000  Level Indianapolis Center
Thu 02:46:09 PM 37.2153 -83.0547 207° Southwest 366 421 38,000  Level Indianapolis Center
Thu 02:47:11 PM 37.1119 -83.1228 208° Southwest 362 417 38,000  Level Indianapolis Center
Thu 02:48:13 PM 37.0239 -83.1803 208° Southwest 360 414 38,000  Level Indianapolis Center
Thu 02:49:15 PM 36.9350 -83.2375 207° Southwest 361 415 38,000  Level Indianapolis Center
Thu 02:50:17 PM 36.8464 -83.2953 208° Southwest 361 415 38,000  Level Indianapolis Center
Thu 02:51:20 PM 36.7425 -83.3625 207° Southwest 361 415 38,000  Level Indianapolis Center
Thu 02:52:22 PM 36.6531 -83.4189 207° Southwest 360 414 38,000  Level Indianapolis Center
Thu 02:53:24 PM 36.5636 -83.4764 207° Southwest 361 415 38,000  Level Indianapolis Center
Thu 02:54:26 PM 36.4775 -83.5322 208° Southwest 360 414 38,000  Level Indianapolis Center
Thu 02:55:28 PM 36.3875 -83.5908 208° Southwest 363 418 38,000  Level Indianapolis Center
Thu 02:56:30 PM 36.2783 -83.6592 207° Southwest 365 420 38,000  Level Indianapolis Center
Thu 02:57:32 PM 36.1856 -83.7181 207° Southwest 371 427 38,000  Level Indianapolis Center
Thu 02:58:34 PM 36.0922 -83.7772 207° Southwest 374 430 38,000  Level Indianapolis Center
Thu 02:59:06 PM 36.0394 -83.8128 209° Southwest 372 428 38,000  Level Atlanta Center
Thu 03:00:06 PM 35.9622 -83.8592 206° Southwest 377 434 38,000  Level Atlanta Center
Thu 03:01:06 PM 35.8517 -83.9106 201° Southwest 383 441 38,000  Level Atlanta Center
Thu 03:06:16 PM 35.1915 -84.0673 201° Southwest 410 472 38,000  Level FlightAware ADS-B
Thu 03:06:56 PM 35.1152 -84.0857 191° South 411 473 38,000  Level FlightAware ADS-B
Thu 03:07:52 PM 35.0124 -84.1102 191° South 409 471 38,000  Level FlightAware ADS-B
Thu 03:08:37 PM 34.9281 -84.1303 191° South 408 470 38,000  Level FlightAware ADS-B
Thu 03:09:13 PM 34.8618 -84.1461 191° South 408 470 38,000  Level FlightAware ADS-B
Thu 03:09:55 PM 34.7835 -84.1646 191° South 409 471 38,000  Level FlightAware ADS-B
Thu 03:10:35 PM 34.7087 -84.1823 191° South 409 471 38,000  Level FlightAware ADS-B
Thu 03:11:16 PM 34.6354 -84.1997 191° South 410 472 38,000  Level FlightAware ADS-B
Thu 03:11:56 PM 34.5589 -84.2179 191° South 411 473 38,000  Level FlightAware ADS-B
Thu 03:12:37 PM 34.4820 -84.2361 191° South 412 474 38,000  Level FlightAware ADS-B
Thu 03:13:18 PM 34.4055 -84.2541 191° South 414 476 38,000  Level FlightAware ADS-B
Thu 03:13:58 PM 34.3307 -84.2717 191° South 408 470 38,000  Level FlightAware ADS-B
Thu 03:14:38 PM 34.2543 -84.2896 191° South 411 473 38,000  Level FlightAware ADS-B
Thu 03:15:18 PM 34.1786 -84.3073 191° South 412 474 38,000  Level FlightAware ADS-B
Thu 03:15:56 PM 34.1054 -84.3244 191° South 412 474 38,000  Level FlightAware ADS-B
Thu 03:16:38 PM 34.0261 -84.3429 191° South 411 473 38,000  Level FlightAware ADS-B
Thu 03:17:22 PM 33.9410 -84.3626 191° South 410 472 38,000  Level FlightAware ADS-B
Thu 03:18:06 PM 33.9378 -84.3644 191° South 422 486 38,000  Level Atlanta Center
Thu 03:19:06 PM 33.8208 -84.3914 191° South 427 491 38,000  Level Atlanta Center
Thu 03:20:06 PM 33.7103 -84.4183 191° South 427 491 38,000  Level Atlanta Center
Thu 03:21:06 PM 33.6183 -84.4356 189° South 427 491 38,000  Level Atlanta Center
Thu 03:22:06 PM 33.4806 -84.4347 180° South 439 505 38,000  Level Atlanta Center
Thu 03:23:06 PM 33.3575 -84.4342 180° South 439 505 38,000  Level Atlanta Center
Thu 03:24:06 PM 33.2364 -84.4286 178° South 439 505 38,000  Level Atlanta Center
Thu 03:25:06 PM 33.1172 -84.4308 181° South 439 505 38,000  Level Atlanta Center
Thu 03:26:06 PM 32.9942 -84.4278 179° South 439 505 38,000  Level Atlanta Center
Thu 03:27:06 PM 32.8628 -84.4247 179° South 439 505 38,000  Level Atlanta Center
Thu 03:28:06 PM 32.7564 -84.4192 177° South 439 505 38,000  Level Atlanta Center
Thu 03:29:06 PM 32.6353 -84.4161 179° South 439 505 38,000  Level Atlanta Center
Thu 03:30:06 PM 32.5142 -84.4158 180° South 439 505 38,000  Level Atlanta Center
Thu 03:31:06 PM 32.3911 -84.4128 179° South 439 505 38,000  Level Atlanta Center
Thu 03:32:06 PM 32.2700 -84.4097 179° South 439 505 38,000  Level Atlanta Center
Thu 03:33:06 PM 32.1469 -84.4069 179° South 439 505 38,000  Level Atlanta Center
Thu 03:34:06 PM 32.0278 -84.4064 180° South 439 505 38,000  Level Atlanta Center
Thu 03:35:05 PM 31.8944 -84.4000 178° South 458 527 38,000  Level Jacksonville Center
Thu 03:36:05 PM 31.7881 -84.3981 179° South 445 512 38,000  Level Jacksonville Center
Thu 03:37:05 PM 31.6669 -84.3961 179° South 439 505 38,000  Level Jacksonville Center
Thu 03:38:05 PM 31.5314 -84.3964 180° South 439 505 38,000  Level Jacksonville Center
Thu 03:39:05 PM 31.4081 -84.3919 178° South 445 512 38,000 -150 Level Jacksonville Center
Thu 03:44:45 PM 30.7080 -84.3764 178° South 456 525 37,000 -158 Descending FlightAware ADS-B (KONZ)
Thu 03:45:25 PM 30.6202 -84.3641 173° South 469 540 37,000  Level FlightAware ADS-B (KONZ)
Thu 03:45:55 PM 30.5612 -84.3483 167° South 480 552 37,000  Level FlightAware ADS-B
Thu 03:46:27 PM 30.4926 -84.3221 162° South 491 565 37,000  Level FlightAware ADS-B
Thu 03:47:04 PM 30.4155 -84.2811 155° Southeast 499 574 37,000  Level FlightAware ADS-B (KONZ)
Thu 03:47:35 PM 30.3531 -84.2403 151° Southeast 500 575 37,000  Level FlightAware ADS-B
Thu 03:48:15 PM 30.2750 -84.1895 151° Southeast 497 572 37,000  Level FlightAware ADS-B
Thu 03:48:45 PM 30.2116 -84.1482 151° Southeast 498 573 37,000  Level FlightAware ADS-B (KONZ)
Thu 03:49:15 PM 30.1749 -84.1243 151° Southeast 498 573 37,000  Level FlightAware ADS-B
Thu 03:49:53 PM 30.0899 -84.0691 151° Southeast 500 575 37,000  Level FlightAware ADS-B
Thu 03:50:25 PM 30.0099 -84.0171 151° Southeast 501 577 37,000  Level FlightAware ADS-B (KONZ)
Thu 03:51:05 PM 29.9275 -83.9636 151° Southeast 498 573 37,000  Level FlightAware ADS-B (KONZ)
Thu 03:52:01 PM 29.8144 -83.8904 151° Southeast 498 573 37,000  Level FlightAware ADS-B (KONZ)
Thu 03:52:33 PM 29.9378 -83.9703 331° Northwest 498 573 37,000  Level FlightAware ADS-B
Thu 03:53:05 PM 29.7036 -83.8203 331° Northwest 498 573 37,000  Level Jacksonville Center
Thu 03:54:05 PM 29.5831 -83.7428 151° Southeast 498 573 37,000  Level Jacksonville Center
Thu 03:55:05 PM 29.4603 -83.6653 151° Southeast 498 573 37,000  Level Jacksonville Center
Thu 03:56:05 PM 29.3253 -83.5786 151° Southeast 498 573 37,000  Level Jacksonville Center
Thu 03:57:05 PM 29.2044 -83.5017 151° Southeast 498 573 37,000  Level Jacksonville Center
Thu 03:58:05 PM 29.0839 -83.4247 151° Southeast 498 573 37,000  Level Jacksonville Center
Thu 04:03:33 PM 28.4130 -82.9989 151° Southeast 495 570 37,000  Level FlightAware ADS-B
Thu 04:04:41 PM 28.2761 -82.9132 151° Southeast 491 565 37,000  Level FlightAware ADS-B
Thu 04:05:19 PM 28.2017 -82.8669 151° Southeast 488 562 37,000  Level FlightAware ADS-B
Thu 04:07:09 PM 27.9896 -82.7351 151° Southeast 475 547 37,000  Level FlightAware ADS-B
Thu 04:08:11 PM 27.8681 -82.6592 151° Southeast 475 547 37,000  Level FlightAware ADS-B
Thu 04:08:50 PM 27.7955 -82.6098 149° Southeast 477 549 37,000  Level FlightAware ADS-B
Thu 04:09:30 PM 27.7286 -82.5647 149° Southeast 475 547 37,000  Level FlightAware ADS-B
Thu 04:10:09 PM 27.6464 -82.5099 149° Southeast 473 544 37,000  Level FlightAware ADS-B
Thu 04:10:45 PM 27.5865 -82.4701 150° Southeast 472 543 37,000  Level FlightAware ADS-B
Thu 04:11:49 PM 27.4584 -82.3850 149° Southeast 472 543 37,000  Level FlightAware ADS-B
Thu 04:12:31 PM 27.3782 -82.3319 150° Southeast 472 543 37,000  Level FlightAware ADS-B
Thu 04:15:11 PM 27.0633 -82.1866 158° South 459 528 37,000  Level FlightAware ADS-B
Thu 04:16:53 PM 26.8632 -82.0995 159° South 458 527 37,000  Level FlightAware ADS-B
Thu 04:17:33 PM 26.7816 -82.0641 159° South 459 528 37,000  Level FlightAware ADS-B
Thu 04:18:14 PM 26.7100 -82.0331 159° South 460 529 37,000  Level FlightAware ADS-B
Thu 04:18:54 PM 26.6212 -81.9946 159° South 462 532 37,000  Level FlightAware ADS-B
Thu 04:19:33 PM 26.5424 -81.9604 159° South 464 534 37,000  Level FlightAware ADS-B
Thu 04:20:14 PM 26.4606 -81.9252 159° South 466 536 37,000  Level FlightAware ADS-B
Thu 04:20:52 PM 26.3839 -81.8921 159° South 464 534 37,000  Level FlightAware ADS-B
Thu 04:21:34 PM 26.3029 -81.8572 159° South 464 534 37,000  Level FlightAware ADS-B
Thu 04:22:15 PM 26.2224 -81.8225 159° South 464 534 37,000  Level FlightAware ADS-B
Thu 04:22:48 PM 26.1578 -81.7949 159° South 465 535 37,000  Level FlightAware ADS-B
Thu 04:23:35 PM 26.0575 -81.7519 159° South 466 536 37,000  Level FlightAware ADS-B
Thu 04:24:33 PM 25.9594 -81.7100 159° South 468 539 37,000  Level FlightAware ADS-B
Thu 04:26:54 PM 25.6530 -81.5803 159° South 470 541 37,000  Level FlightAware ADS-B
Thu 04:27:59 PM 25.5353 -81.5539 159° South 462 532 37,000  Level Miami Center
Thu 04:28:59 PM 25.4058 -81.5511 179° South 462 532 37,000  Level Miami Center
Thu 04:29:59 PM 25.2839 -81.5761 191° South 448 516 37,000 -50 Level Miami Center
Thu 04:30:59 PM 25.1594 -81.6128 195° South 448 516 36,900 -550 Descending Miami Center
Thu 04:31:59 PM 25.0394 -81.6469 194° South 448 516 35,900 -1,100 Descending Miami Center
Thu 04:32:59 PM 24.9003 -81.6875 195° South 460 529 34,700 -1,300 Descending Miami Center
Thu 04:33:59 PM 24.7969 -81.7178 195° South 455 524 33,300 -1,500 Descending Miami Center
Thu 04:34:59 PM 24.6789 -81.7519 195° South 450 518 31,700 -1,400 Descending Miami Center
Thu 04:35:59 PM 24.5575 -81.8178 206° Southwest 440 506 30,500 -1,100 Descending Miami Center
Thu 04:36:59 PM 24.4758 -81.8922 220° Southwest 409 471 29,500 -1,000 Descending Miami Center
Thu 04:37:59 PM 24.4017 -81.9850 229° Southwest 397 457 28,500 -1,000 Descending Miami Center
Thu 04:38:59 PM 24.3358 -82.0781 232° Southwest 397 457 27,500 -1,000 Descending Miami Center
Thu 04:39:59 PM 24.2678 -82.1661 230° Southwest 397 457 26,500 -1,000 Descending Miami Center
Thu 04:40:59 PM 24.2042 -82.2522 231° Southwest 386 444 25,500 -1,000 Descending Miami Center
Thu 04:41:59 PM 24.1406 -82.3383 231° Southwest 380 437 24,500 -1,000 Descending Miami Center
Thu 04:42:59 PM 24.0747 -82.4219 229° Southwest 374 430 23,500 -1,140 Descending Miami Center
Thu 04:44:00 PM 23.9953 -82.4842 216° Southwest 363 418 22,200 -1,279 Descending Miami Center
Thu 04:45:00 PM 23.9015 -82.5026 173° South  Level FlightAware Approximate
Thu 04:52:00 PM 23.0624 -82.4025 170° South  Level FlightAware Approximate
Thu 04:53:00 PM 22.9891 -82.4091 180° South  Level Estimated
Thu 04:54:00 PM 22.9891 -82.4091 180° South  Level Estimated
Thu 04:55:00 PM 22.9891 -82.4091 180° South  Level Estimated
Thu 04:56:00 PM 22.9891 -82.4091 180° South  Level Estimated
Thu 04:57:00 PM 22.9891 -82.4091 180° South  Level Estimated
Thu 04:58:00 PM 22.9891 -82.4091 180° South  Level Estimated
Thu 04:59:00 PM 22.9891 -82.4091 180° South  Level Estimated
Thu 05:00:00 PM 22.9891 -82.4091 180° South  Level Estimated
Thu 05:01:00 PM 22.9891 -82.4091 180° South  Level Estimated
Thu 05:02:00 PM 22.9891 -82.4091 180° South  Level Estimated
Thu 05:03:00 PM 22.9891 -82.4091 180° South  Level Estimated
Thu 05:04:00 PM 22.9891 -82.4091 180° South  Level Estimated
Thu 05:05:00 PM 22.9891 -82.4091 180° South  Level Estimated
Thu 05:06:00 PM 22.9891 -82.4091 180° South  Level Estimated
Thu 05:07:00 PM 22.9891 -82.4091 180° South  Level Estimated
Thu 05:08:00 PM 22.9891 -82.4091 180° South  Level Estimated
Thu 05:09:00 PM 22.9891 -82.4091 180° South  Level Estimated
Thu 05:10:00 PM 22.9891 -82.4091 180° South  Level Estimated
Thu 05:11:00 PM 22.9891 -82.4091 180° South  Level Estimated
Thu 05:12:00 PM 22.9891 -82.4091 180° South  Level Estimated
Thu 05:13:00 PM 22.9891 -82.4091 180° South  Level Estimated
Thu 05:14:00 PM 22.9891 -82.4091 180° South  Level Estimated
Thu 05:15:00 PM 22.9891 -82.4091 180° South  Level Estimated

Login

Don't have an account? Register now (free) for customized features, flight alerts, and more!